Time;durP1;ratioP1;P1;durP2;ratioP2;P2;SDS_P1;SDS_P2;PMS_P1;PMS_P2;Temp;Humidity;BMP_temperature;BMP_pressure;BME280_temperature;BME280_humidity;BME280_pressure;Samples;Min_cycle;Max_cycle;Signal;HPM_P1;HPM_P2
2023/06/09 05:11:23;;;;;;;;;;;;;;;6.73;100.00;99273.31;6169164;23;19940;-81
2023/06/09 05:13:49;;;;;;;;;;;;;;;6.69;100.00;99271.69;6158321;23;19924;-81
2023/06/09 05:16:15;;;;;;;;;;;;;;;6.69;100.00;99273.47;6184820;23;19944;-82
2023/06/09 05:18:41;;;;;;;;;;;;;;;6.66;100.00;99277.06;6184766;23;19919;-82
2023/06/09 05:21:06;;;;;;;;;;;;;;;6.69;100.00;99276.94;6158207;23;19912;-81
2023/06/09 05:23:33;;;;;;;;;;;;;;;6.81;100.00;99275.66;6158212;23;19920;-81
2023/06/09 05:25:58;;;;;;;;;;;;;;;6.78;100.00;99277.53;6156440;23;19995;-81
2023/06/09 05:28:23;;;;;;;;;;;;;;;6.75;100.00;99280.28;6158427;23;19947;-81
2023/06/09 05:30:48;;;;;;;;;;;;;;;6.76;100.00;99274.09;6184682;23;19912;-81
2023/06/09 05:33:13;;;;;;;;;;;;;;;6.71;100.00;99275.09;6184617;23;19988;-81
2023/06/09 05:35:39;;;;;;;;;;;;;;;6.83;100.00;99280.84;6184900;23;20319;-81
2023/06/09 05:38:04;;;;;;;;;;;;;;;6.76;100.00;99282.00;6184910;23;19912;-81
2023/06/09 05:40:29;;;;;;;;;;;;;;;6.80;100.00;99276.56;6183408;23;20328;-81
2023/06/09 05:42:54;;;;;;;;;;;;;;;6.85;100.00;99286.94;6184226;23;20380;-81
2023/06/09 05:45:20;;;;;;;;;;;;;;;6.82;100.00;99276.53;6184559;23;19912;-82
2023/06/09 05:47:45;;;;;;;;;;;;;;;6.82;100.00;99287.06;6184918;23;19955;-82
2023/06/09 05:50:11;;;;;;;;;;;;;;;6.82;100.00;99294.97;6184485;23;19916;-81
2023/06/09 05:52:36;;;;;;;;;;;;;;;6.84;100.00;99293.97;6158176;23;19944;-83
2023/06/09 05:55:02;;;;;;;;;;;;;;;6.85;100.00;99282.53;6156690;23;19919;-82
2023/06/09 05:57:29;;;;;;;;;;;;;;;6.83;100.00;99294.03;6158050;23;19908;-82
2023/06/09 05:59:56;;;;;;;;;;;;;;;6.93;100.00;99284.03;6150511;23;19967;-82
2023/06/09 06:02:21;;;;;;;;;;;;;;;6.87;100.00;99293.84;6158219;23;20320;-82
2023/06/09 06:04:46;;;;;;;;;;;;;;;6.87;100.00;99277.22;6158313;23;19912;-83
2023/06/09 06:07:14;;;;;;;;;;;;;;;6.83;100.00;99276.47;6158092;23;19951;-82
2023/06/09 06:09:39;;;;;;;;;;;;;;;6.89;100.00;99278.88;6156504;23;19946;-82
2023/06/09 06:12:05;;;;;;;;;;;;;;;6.85;100.00;99282.53;6158126;23;19920;-82
2023/06/09 06:14:31;;;;;;;;;;;;;;;6.79;100.00;99288.00;6158195;23;20337;-83
2023/06/09 06:16:56;;;;;;;;;;;;;;;6.84;100.00;99285.22;6158112;23;19978;-82
2023/06/09 06:19:22;;;;;;;;;;;;;;;6.86;100.00;99283.38;6158031;23;19913;-81
2023/06/09 06:21:47;;;;;;;;;;;;;;;6.89;100.00;99285.91;6184467;23;19912;-81
2023/06/09 06:24:12;;;;;;;;;;;;;;;6.84;100.00;99275.53;6149195;23;19922;-81
2023/06/09 06:26:38;;;;;;;;;;;;;;;6.90;100.00;99277.94;6182803;23;20051;-81
2023/06/09 06:29:03;;;;;;;;;;;;;;;6.91;100.00;99271.78;6184769;23;19916;-81
2023/06/09 06:31:29;;;;;;;;;;;;;;;6.93;100.00;99274.34;6184387;23;20052;-82
2023/06/09 06:33:54;;;;;;;;;;;;;;;6.87;100.00;99270.16;6157764;23;20020;-82
2023/06/09 06:36:21;;;;;;;;;;;;;;;6.90;100.00;99269.19;6149806;23;19932;-83
2023/06/09 07:54:37;;;;;;;;;;;;;;;6.87;100.00;99282.47;6120261;23;20272;-80
2023/06/09 07:57:02;;;;;;;;;;;;;;;6.92;100.00;99285.78;6100410;23;19945;-80
2023/06/09 07:59:27;;;;;;;;;;;;;;;6.88;100.00;99286.84;6099982;23;19913;-80
2023/06/09 08:01:52;;;;;;;;;;;;;;;6.89;100.00;99283.28;6125323;23;20376;-80
2023/06/09 08:04:18;;;;;;;;;;;;;;;6.92;100.00;99288.44;6100360;23;20288;-80
2023/06/09 08:06:44;;;;;;;;;;;;;;;7.06;100.00;99280.03;6126434;23;19917;-82
2023/06/09 08:09:10;;;;;;;;;;;;;;;7.06;100.00;99280.88;6098653;23;20314;-82
2023/06/09 08:11:35;;;;;;;;;;;;;;;7.02;100.00;99276.66;6125955;23;19924;-79
2023/06/09 08:14:01;;;;;;;;;;;;;;;6.96;100.00;99274.25;6100007;23;19921;-81
2023/06/09 08:16:26;;;;;;;;;;;;;;;6.94;100.00;99269.94;6098825;23;19916;-81
2023/06/09 08:18:51;;;;;;;;;;;;;;;6.96;100.00;99266.34;6099963;23;19923;-81
2023/06/09 08:21:17;;;;;;;;;;;;;;;6.98;100.00;99266.28;6125439;23;19996;-81
2023/06/09 08:23:43;;;;;;;;;;;;;;;6.94;100.00;99264.66;6098483;23;20333;-81
2023/06/09 08:26:09;;;;;;;;;;;;;;;7.01;100.00;99260.91;6100394;23;19968;-87
2023/06/09 08:28:34;;;;;;;;;;;;;;;6.94;100.00;99255.03;6099880;23;20621;-82
2023/06/09 08:31:00;;;;;;;;;;;;;;;7.00;100.00;99254.75;6099220;23;19983;-81
2023/06/09 08:33:26;;;;;;;;;;;;;;;6.98;100.00;99253.97;6125321;23;20240;-83
2023/06/09 08:35:51;;;;;;;;;;;;;;;6.93;100.00;99248.03;6125818;23;20385;-81
2023/06/09 08:38:16;;;;;;;;;;;;;;;6.98;100.00;99247.84;6098134;23;19947;-81
2023/06/09 08:40:41;;;;;;;;;;;;;;;6.93;100.00;99253.28;6099046;23;19919;-81
2023/06/09 08:43:07;;;;;;;;;;;;;;;6.97;100.00;99248.75;6099798;23;19913;-82
2023/06/09 08:45:33;;;;;;;;;;;;;;;6.96;100.00;99242.63;6094967;23;19964;-81
2023/06/09 08:47:59;;;;;;;;;;;;;;;6.98;100.00;99246.06;6099365;23;19917;-81
2023/06/09 08:50:28;;;;;;;;;;;;;;;6.98;100.00;99240.81;6099560;23;19920;-80
2023/06/09 08:52:53;;;;;;;;;;;;;;;6.99;100.00;99239.00;6098256;23;19936;-82
2023/06/09 08:55:19;;;;;;;;;;;;;;;7.04;100.00;99240.56;6099590;23;20603;-81
2023/06/09 08:57:46;;;;;;;;;;;;;;;7.01;100.00;99245.97;6090654;23;20270;-81
2023/06/09 09:00:12;;;;;;;;;;;;;;;7.05;100.00;99236.16;6089579;23;19917;-81
2023/06/09 09:02:37;;;;;;;;;;;;;;;7.05;100.00;99242.31;6098741;23;19952;-81
2023/06/09 09:05:03;;;;;;;;;;;;;;;6.99;100.00;99241.66;6125171;23;19913;-81
2023/06/09 09:07:28;;;;;;;;;;;;;;;6.98;100.00;99240.81;6123540;23;19924;-81
2023/06/09 09:09:54;;;;;;;;;;;;;;;6.99;100.00;99239.91;6125489;23;19913;-81
2023/06/09 09:12:19;;;;;;;;;;;;;;;7.02;100.00;99247.69;6124730;23;20244;-81
2023/06/09 09:14:44;;;;;;;;;;;;;;;9.96;100.00;99236.06;6124967;23;19920;-80
2023/06/09 09:17:10;;;;;;;;;;;;;;;8.52;100.00;99241.75;6099600;23;20214;-80
2023/06/09 09:19:36;;;;;;;;;;;;;;;7.61;100.00;99241.06;6125496;23;19913;-81
2023/06/09 09:22:11;;;;;;;;;;;;;;;7.36;100.00;99246.41;6124370;23;19921;-81
2023/06/09 09:24:40;;;;;;;;;;;;;;;7.21;100.00;99244.34;6125424;23;19913;-81
2023/06/09 09:27:16;;;;;;;;;;;;;;;7.18;100.00;99241.81;6099537;23;19913;-81
2023/06/09 09:29:42;;;;;;;;;;;;;;;7.15;100.00;99237.56;6115242;23;19917;-81
2023/06/09 09:32:08;;;;;;;;;;;;;;;7.11;100.00;99235.09;6098976;23;19913;-81
2023/06/09 09:34:33;;;;;;;;;;;;;;;7.09;100.00;99232.50;6099335;23;19968;-81
2023/06/09 09:37:00;;;;;;;;;;;;;;;7.09;100.00;99230.72;6125633;23;19917;-81
2023/06/09 09:39:25;;;;;;;;;;;;;;;7.06;100.00;99227.34;6123720;23;20013;-82
2023/06/09 09:42:05;;;;;;;;;;;;;;;7.11;100.00;99229.81;6125423;23;19997;-81
2023/06/09 09:44:38;;;;;;;;;;;;;;;7.05;100.00;99223.88;6125263;23;19920;-81
2023/06/09 09:47:03;;;;;;;;;;;;;;;7.14;100.00;99224.44;6099567;23;20291;-81
2023/06/09 09:49:29;;;;;;;;;;;;;;;7.09;100.00;99222.81;6125501;23;19940;-81
2023/06/09 09:51:56;;;;;;;;;;;;;;;7.06;100.00;99222.94;6099366;23;20032;-82
2023/06/09 09:54:23;;;;;;;;;;;;;;;7.04;100.00;99223.91;6097948;23;19932;-82
2023/06/09 09:56:49;;;;;;;;;;;;;;;7.03;100.00;99217.78;6099832;23;20483;-81
2023/06/09 09:59:14;;;;;;;;;;;;;;;7.06;100.00;99217.66;6090182;23;19920;-82
2023/06/09 10:01:40;;;;;;;;;;;;;;;7.03;100.00;99220.41;6116698;23;20332;-84
2023/06/09 10:04:06;;;;;;;;;;;;;;;7.07;100.00;99214.13;6089328;23;20317;-84
2023/06/09 10:06:32;;;;;;;;;;;;;;;7.04;100.00;99214.22;6098223;23;19925;-81
2023/06/09 10:08:58;;;;;;;;;;;;;;;7.04;100.00;99211.59;6097215;23;19917;-81
2023/06/09 10:11:29;;;;;;;;;;;;;;;7.04;100.00;99208.97;6098862;23;19908;-81
2023/06/09 10:13:54;;;;;;;;;;;;;;;7.02;100.00;99209.94;6100646;23;19968;-81
2023/06/09 10:16:20;;;;;;;;;;;;;;;7.02;100.00;99200.28;6100570;23;20285;-80
2023/06/09 10:18:46;;;;;;;;;;;;;;;7.11;100.00;99209.59;6101035;23;19917;-81
2023/06/09 10:21:12;;;;;;;;;;;;;;;7.11;100.00;99209.59;6125675;23;19947;-84
2023/06/09 10:23:39;;;;;;;;;;;;;;;7.06;100.00;99204.50;6098507;23;19913;-81
2023/06/09 10:26:05;;;;;;;;;;;;;;;7.07;100.00;99198.31;6126914;23;19913;-81
2023/06/09 10:28:30;;;;;;;;;;;;;;;7.06;100.00;99201.84;6101163;23;19920;-81
2023/06/09 10:30:56;;;;;;;;;;;;;;;7.12;100.00;99205.19;6096859;23;20249;-81
2023/06/09 10:33:25;;;;;;;;;;;;;;;7.09;100.00;99207.00;6126997;23;19924;-81
2023/06/09 10:35:54;;;;;;;;;;;;;;;7.13;100.00;99202.47;6100788;23;19920;-81
2023/06/09 10:38:31;;;;;;;;;;;;;;;7.11;100.00;99201.69;6125056;23;19987;-81
2023/06/09 10:41:07;;;;;;;;;;;;;;;7.11;100.00;99204.31;6101019;23;19913;-81
2023/06/09 10:43:35;;;;;;;;;;;;;;;7.12;100.00;99203.41;6101023;23;19917;-81
2023/06/09 10:46:01;;;;;;;;;;;;;;;7.14;100.00;99206.00;6100874;23;20249;-81
2023/06/09 10:48:46;;;;;;;;;;;;;;;7.14;100.00;99198.94;6120268;23;20338;-81
2023/06/09 10:51:26;;;;;;;;;;;;;;;7.17;100.00;99198.81;6126388;23;19940;-81
2023/06/09 10:54:07;;;;;;;;;;;;;;;7.21;100.00;99189.91;6099060;23;19921;-81
2023/06/09 10:56:42;;;;;;;;;;;;;;;7.15;100.00;99181.34;6126663;23;19917;-81
2023/06/09 10:59:25;;;;;;;;;;;;;;;7.12;100.00;99181.50;6100980;23;19920;-81
2023/06/09 11:02:02;;;;;;;;;;;;;;;7.12;100.00;99184.13;6126768;23;20237;-81
2023/06/09 11:04:46;;;;;;;;;;;;;;;7.13;100.00;99177.91;6100794;23;19913;-81
2023/06/09 11:07:15;;;;;;;;;;;;;;;7.14;100.00;99172.59;6099336;23;20356;-81
2023/06/09 11:09:46;;;;;;;;;;;;;;;7.13;100.00;99173.50;6100690;23;20318;-81
2023/06/09 11:12:21;;;;;;;;;;;;;;;7.15;100.00;99166.41;6100319;23;19913;-80
2023/06/09 11:14:46;;;;;;;;;;;;;;;7.14;100.00;99169.09;6126580;23;19913;-81
2023/06/09 11:17:39;;;;;;;;;;;;;;;7.11;100.00;99170.06;6101086;23;19916;-82
2023/06/09 11:20:11;;;;;;;;;;;;;;;7.13;100.00;99164.75;6095596;23;19917;-82
2023/06/09 11:22:47;;;;;;;;;;;;;;;7.14;100.00;99167.31;6098659;23;19913;-81
2023/06/09 11:25:23;;;;;;;;;;;;;;;7.15;100.00;99152.34;6100677;23;19913;-80
2023/06/09 11:28:08;;;;;;;;;;;;;;;7.13;100.00;99154.19;6099989;23;20392;-80
2023/06/09 11:30:33;;;;;;;;;;;;;;;7.12;100.00;99163.03;6100121;23;20322;-81
2023/06/09 11:33:03;;;;;;;;;;;;;;;7.15;100.00;99147.09;6100232;23;20003;-81
2023/06/09 11:35:28;;;;;;;;;;;;;;;7.11;100.00;99145.50;6126419;23;19948;-81
2023/06/09 11:37:56;;;;;;;;;;;;;;;7.15;100.00;99152.34;6099255;23;19913;-81
2023/06/09 11:40:22;;;;;;;;;;;;;;;7.11;100.00;99146.34;6126208;23;20285;-82
2023/06/09 11:42:48;;;;;;;;;;;;;;;7.13;100.00;99151.56;6125963;23;19913;-82
2023/06/09 11:45:13;;;;;;;;;;;;;;;7.13;100.00;99146.31;6100276;23;19913;-80
2023/06/09 11:47:42;;;;;;;;;;;;;;;7.08;100.00;99142.09;6126613;23;19992;-81
2023/06/09 11:50:12;;;;;;;;;;;;;;;7.11;100.00;99137.59;6126399;23;19946;-80
2023/06/09 11:52:37;;;;;;;;;;;;;;;7.10;100.00;99144.66;6098825;23;20237;-82
2023/06/09 11:55:04;;;;;;;;;;;;;;;7.10;100.00;99128.84;6099944;23;19921;-80
2023/06/09 11:57:32;;;;;;;;;;;;;;;7.09;100.00;99138.50;6099871;23;19913;-81
2023/06/09 11:59:58;;;;;;;;;;;;;;;7.11;100.00;99132.34;6100221;23;20030;-80
2023/06/09 12:02:25;;;;;;;;;;;;;;;7.10;100.00;99131.50;6126046;23;19917;-81
2023/06/09 12:04:50;;;;;;;;;;;;;;;7.13;100.00;99133.97;6100074;23;19917;-81
2023/06/09 12:07:17;;;;;;;;;;;;;;;7.13;100.00;99127.84;6098609;23;19920;-80
2023/06/09 12:09:42;;;;;;;;;;;;;;;7.11;100.00;99134.97;6126282;23;19917;-81
2023/06/09 12:12:08;;;;;;;;;;;;;;;7.11;100.00;99125.28;6125126;23;20355;-80
2023/06/09 12:14:33;;;;;;;;;;;;;;;7.13;100.00;99130.50;6126154;23;19917;-80
2023/06/09 12:16:58;;;;;;;;;;;;;;;7.07;100.00;99118.44;6126041;23;19919;-81
2023/06/09 12:19:24;;;;;;;;;;;;;;;7.08;100.00;99123.66;6125840;23;19917;-81
2023/06/09 12:21:49;;;;;;;;;;;;;;;7.11;100.00;99125.28;6125796;23;19940;-81
2023/06/09 12:24:15;;;;;;;;;;;;;;;7.11;100.00;99129.69;6123687;23;20036;-80
2023/06/09 12:26:40;;;;;;;;;;;;;;;7.07;100.00;99123.72;6125688;23;20314;-80
2023/06/09 12:29:06;;;;;;;;;;;;;;;7.05;100.00;99126.41;6099610;23;20034;-80
2023/06/09 12:31:31;;;;;;;;;;;;;;;7.06;100.00;99122.81;6125502;23;19924;-81
2023/06/09 12:33:57;;;;;;;;;;;;;;;7.12;100.00;99121.75;6125913;23;20018;-81
2023/06/09 12:36:22;;;;;;;;;;;;;;;7.11;100.00;99119.16;6100065;23;20322;-81
2023/06/09 12:38:48;;;;;;;;;;;;;;;7.08;100.00;99115.75;6123332;23;19920;-81
2023/06/09 12:41:16;;;;;;;;;;;;;;;7.04;100.00;99124.66;6099743;23;20349;-81
2023/06/09 12:43:50;;;;;;;;;;;;;;;7.05;100.00;99113.22;6125863;23;19917;-81
2023/06/09 12:46:20;;;;;;;;;;;;;;;7.06;100.00;99119.34;6098897;23;19913;-80
2023/06/09 12:48:55;;;;;;;;;;;;;;;7.06;100.00;99114.06;6099646;23;19913;-80
2023/06/09 12:51:21;;;;;;;;;;;;;;;7.05;100.00;99104.44;6099396;23;19964;-82
2023/06/09 12:53:46;;;;;;;;;;;;;;;7.11;100.00;99117.38;6097902;23;19921;-81
2023/06/09 12:56:12;;;;;;;;;;;;;;;7.13;100.00;99114.69;6125612;23;19913;-81
2023/06/09 12:58:37;;;;;;;;;;;;;;;7.09;100.00;99100.78;6095309;23;19912;-81
2023/06/09 13:01:02;;;;;;;;;;;;;;;7.11;100.00;99106.84;6094878;23;19929;-81
2023/06/09 13:03:28;;;;;;;;;;;;;;;7.09;100.00;99108.69;6125144;23;19916;-81
2023/06/09 13:05:53;;;;;;;;;;;;;;;7.07;100.00;99094.72;6125157;23;19913;-81
2023/06/09 13:08:18;;;;;;;;;;;;;;;7.10;100.00;99094.59;6123866;23;19920;-81
2023/06/09 13:10:43;;;;;;;;;;;;;;;7.10;100.00;99097.25;6099539;23;19916;-80
2023/06/09 13:13:09;;;;;;;;;;;;;;;7.07;100.00;99098.22;6098506;23;19917;-82
2023/06/09 13:15:34;;;;;;;;;;;;;;;7.13;100.00;99090.97;6099231;23;19912;-80
2023/06/09 13:17:59;;;;;;;;;;;;;;;7.14;100.00;99103.25;6117742;23;19909;-80
2023/06/09 13:20:24;;;;;;;;;;;;;;;7.11;100.00;99108.63;6125069;23;19913;-80
2023/06/09 13:22:50;;;;;;;;;;;;;;;7.11;100.00;99111.25;6097731;23;19909;-80
2023/06/09 13:25:16;;;;;;;;;;;;;;;7.06;100.00;99112.28;6115878;23;19916;-81
2023/06/09 13:27:44;;;;;;;;;;;;;;;7.09;100.00;99112.16;6125371;23;20004;-81
2023/06/09 13:30:11;;;;;;;;;;;;;;;7.12;100.00;99105.94;6125071;23;20001;-81
2023/06/09 13:32:36;;;;;;;;;;;;;;;7.10;100.00;99110.41;6125428;23;19932;-80
2023/06/09 13:35:02;;;;;;;;;;;;;;;7.11;100.00;99108.63;6124321;23;19923;-80
2023/06/09 13:37:27;;;;;;;;;;;;;;;7.12;100.00;99094.53;6097428;23;20000;-80
2023/06/09 13:39:52;;;;;;;;;;;;;;;7.07;100.00;99092.94;6125684;23;20338;-80
2023/06/09 13:42:18;;;;;;;;;;;;;;;7.10;100.00;99086.69;6124388;23;19917;-80
2023/06/09 13:44:43;;;;;;;;;;;;;;;7.06;100.00;99096.47;6124813;23;20036;-80
2023/06/09 13:47:08;;;;;;;;;;;;;;;7.12;100.00;99091.91;6101012;23;20325;-80
2023/06/09 13:49:33;;;;;;;;;;;;;;;7.15;100.00;99097.03;6100631;23;19912;-81
2023/06/09 13:51:59;;;;;;;;;;;;;;;7.12;100.00;99091.91;6126748;23;19940;-80
2023/06/09 13:54:24;;;;;;;;;;;;;;;7.15;100.00;99091.75;6125780;23;19924;-81
2023/06/09 13:56:49;;;;;;;;;;;;;;;7.14;100.00;99088.28;6100514;23;19952;-80
2023/06/09 13:59:15;;;;;;;;;;;;;;;7.14;100.00;99083.00;6127365;23;19936;-81
2023/06/09 14:01:42;;;;;;;;;;;;;;;7.13;100.00;99085.69;6120127;23;19940;-80
2023/06/09 14:04:08;;;;;;;;;;;;;;;7.14;100.00;99077.75;6127295;23;19920;-80
2023/06/09 14:06:33;;;;;;;;;;;;;;;7.18;100.00;99065.28;6099914;23;19913;-80
2023/06/09 14:08:58;;;;;;;;;;;;;;;7.14;100.00;99074.25;6125672;23;20019;-80
2023/06/09 14:11:23;;;;;;;;;;;;;;;7.06;100.00;99070.13;6126414;23;19920;-80
2023/06/09 14:13:49;;;;;;;;;;;;;;;7.07;100.00;99057.84;6126059;23;19916;-80
2023/06/09 14:16:14;;;;;;;;;;;;;;;7.13;100.00;99048.81;6101232;23;19912;-80
2023/06/09 14:18:40;;;;;;;;;;;;;;;7.12;100.00;99057.66;6126756;23;20043;-80
2023/06/09 14:21:05;;;;;;;;;;;;;;;7.17;100.00;99056.53;6126861;23;20348;-81
2023/06/09 14:23:31;;;;;;;;;;;;;;;7.15;100.00;99057.50;6125652;23;19920;-81
2023/06/09 14:25:56;;;;;;;;;;;;;;;7.10;100.00;99055.09;6101186;23;19963;-80
2023/06/09 14:28:22;;;;;;;;;;;;;;;7.08;100.00;99049.88;6096580;23;19921;-80
2023/06/09 14:30:47;;;;;;;;;;;;;;;7.06;100.00;99049.06;6100754;23;19940;-80
2023/06/09 14:33:13;;;;;;;;;;;;;;;7.14;100.00;99050.53;6100626;23;19952;-80
2023/06/09 14:35:39;;;;;;;;;;;;;;;7.09;100.00;99048.94;6100836;23;20408;-80
2023/06/09 14:38:04;;;;;;;;;;;;;;;7.03;100.00;99049.19;6124512;23;19952;-80
2023/06/09 14:40:34;;;;;;;;;;;;;;;7.05;100.00;99035.94;6127024;23;19948;-80
2023/06/09 14:43:00;;;;;;;;;;;;;;;7.07;100.00;99039.41;6100744;23;19913;-80
2023/06/09 14:45:25;;;;;;;;;;;;;;;7.12;100.00;99041.84;6100169;23;19924;-83
2023/06/09 14:48:01;;;;;;;;;;;;;;;7.04;100.00;99042.16;6096856;23;19912;-81
2023/06/09 14:50:30;;;;;;;;;;;;;;;7.06;100.00;99040.31;6126772;23;19932;-80
2023/06/09 14:52:55;;;;;;;;;;;;;;;7.06;100.00;99040.31;6125371;23;19920;-81
2023/06/09 14:55:22;;;;;;;;;;;;;;;7.03;100.00;99029.91;6099931;23;19917;-81
2023/06/09 14:57:55;;;;;;;;;;;;;;;7.04;100.00;99034.25;6100163;23;19921;-80
2023/06/09 15:00:21;;;;;;;;;;;;;;;7.05;100.00;99026.28;6126808;23;19917;-81
2023/06/09 15:02:47;;;;;;;;;;;;;;;7.04;100.00;99024.56;6126656;23;20056;-80
2023/06/09 15:05:12;;;;;;;;;;;;;;;7.21;100.00;99021.25;6100795;23;20294;-80
2023/06/09 15:07:37;;;;;;;;;;;;;;;7.17;100.00;99017.03;6098840;23;19919;-81
2023/06/09 15:10:03;;;;;;;;;;;;;;;7.17;100.00;99026.72;6100231;23;19921;-80
2023/06/09 15:12:28;;;;;;;;;;;;;;;7.15;100.00;99028.53;6100625;23;19944;-81
2023/06/09 15:14:53;;;;;;;;;;;;;;;7.11;100.00;99026.97;6100647;23;19923;-80
2023/06/09 15:17:18;;;;;;;;;;;;;;;7.09;100.00;99022.59;6100486;23;20210;-81
2023/06/09 15:19:45;;;;;;;;;;;;;;;7.09;100.00;99030.50;6100148;23;19923;-82
2023/06/09 15:22:10;;;;;;;;;;;;;;;7.12;100.00;99031.31;6099197;23;19913;-81
2023/06/09 15:24:35;;;;;;;;;;;;;;;7.09;100.00;99038.41;6100641;23;19917;-82
2023/06/09 15:27:01;;;;;;;;;;;;;;;7.15;100.00;99025.91;6100283;23;20289;-80
2023/06/09 15:29:28;;;;;;;;;;;;;;;7.15;100.00;99031.16;6100267;23;20292;-82
2023/06/09 15:31:54;;;;;;;;;;;;;;;7.07;100.00;99027.09;6100526;23;19917;-81
2023/06/09 15:34:19;;;;;;;;;;;;;;;7.15;100.00;99034.69;6099804;23;19944;-81
2023/06/09 15:36:44;;;;;;;;;;;;;;;7.20;100.00;99026.59;6095916;23;19913;-80
2023/06/09 15:39:09;;;;;;;;;;;;;;;7.12;100.00;99037.44;6099043;23;20336;-81
2023/06/09 15:41:35;;;;;;;;;;;;;;;7.16;100.00;99038.16;6100439;23;19913;-80
2023/06/09 15:44:00;;;;;;;;;;;;;;;7.16;100.00;99028.47;6126432;23;19919;-81
2023/06/09 15:46:25;;;;;;;;;;;;;;;7.21;100.00;99033.56;6119348;23;19917;-81
2023/06/09 15:48:51;;;;;;;;;;;;;;;7.90;100.00;99030.63;6125843;23;20326;-80
2023/06/09 15:51:16;;;;;;;;;;;;;;;7.39;100.00;99045.97;6126305;23;20343;-80
2023/06/09 15:53:42;;;;;;;;;;;;;;;7.28;100.00;99037.66;6098570;23;19921;-83
2023/06/09 15:56:07;;;;;;;;;;;;;;;7.26;100.00;99034.25;6126265;23;19995;-80
2023/06/09 15:58:33;;;;;;;;;;;;;;;7.20;100.00;99030.06;6126073;23;19913;-80
2023/06/09 16:00:58;;;;;;;;;;;;;;;7.15;100.00;99031.16;6119511;23;19921;-80
2023/06/09 16:03:23;;;;;;;;;;;;;;;7.12;100.00;99020.78;6119011;23;19913;-80
2023/06/09 16:05:48;;;;;;;;;;;;;;;7.13;100.00;99011.94;6126250;23;19917;-80
2023/06/09 16:08:15;;;;;;;;;;;;;;;7.10;100.00;99023.47;6124512;23;19920;-80
2023/06/09 16:10:41;;;;;;;;;;;;;;;7.10;100.00;99020.84;6100131;23;19995;-80
2023/06/09 16:13:07;;;;;;;;;;;;;;;7.08;100.00;99018.28;6100028;23;19920;-80
2023/06/09 16:15:34;;;;;;;;;;;;;;;7.11;100.00;99019.91;6125961;23;19920;-81
2023/06/09 16:18:03;;;;;;;;;;;;;;;7.07;100.00;99024.44;6100029;23;19948;-81
2023/06/09 16:20:28;;;;;;;;;;;;;;;7.06;100.00;99022.72;6096110;23;20007;-80
2023/06/09 16:22:54;;;;;;;;;;;;;;;7.09;100.00;99027.88;6098469;23;20317;-79
2023/06/09 16:25:19;;;;;;;;;;;;;;;7.11;100.00;99019.06;6100050;23;19944;-81
2023/06/09 16:27:44;;;;;;;;;;;;;;;7.11;100.00;99019.06;6100168;23;19913;-80
2023/06/09 16:30:10;;;;;;;;;;;;;;;7.03;100.00;99012.31;6125968;23;20009;-80
2023/06/09 16:32:35;;;;;;;;;;;;;;;7.07;100.00;99021.81;6089762;23;19917;-83
2023/06/09 16:35:01;;;;;;;;;;;;;;;7.06;100.00;99014.81;6099952;23;20241;-82
2023/06/09 16:37:26;;;;;;;;;;;;;;;7.07;100.00;99015.69;6124507;23;20373;-81
2023/06/09 16:39:51;;;;;;;;;;;;;;;7.06;100.00;99016.59;6100147;23;19917;-80
2023/06/09 16:42:17;;;;;;;;;;;;;;;7.05;100.00;99015.75;6095648;23;20246;-80
2023/06/09 16:44:42;;;;;;;;;;;;;;;7.07;100.00;99019.19;6126018;23;19963;-81
2023/06/09 16:47:07;;;;;;;;;;;;;;;7.08;100.00;99020.91;6100033;23;19962;-81
2023/06/09 16:49:32;;;;;;;;;;;;;;;7.06;100.00;99020.09;6125676;23;19916;-80
2023/06/09 16:51:58;;;;;;;;;;;;;;;7.11;100.00;99022.53;6099886;23;19929;-80
2023/06/09 16:54:24;;;;;;;;;;;;;;;7.10;100.00;99023.47;6115727;23;20321;-81
2023/06/09 16:56:49;;;;;;;;;;;;;;;7.06;100.00;99024.50;6099240;23;20289;-79
2023/06/09 16:59:15;;;;;;;;;;;;;;;7.08;100.00;99020.91;6125643;23;19924;-83
2023/06/09 17:01:40;;;;;;;;;;;;;;;7.05;100.00;99021.03;6098003;23;20322;-80
2023/06/09 17:04:05;;;;;;;;;;;;;;;7.05;100.00;99031.56;6099242;23;19923;-80
2023/06/09 17:06:31;;;;;;;;;;;;;;;7.07;100.00;99029.72;6099335;23;19913;-79
2023/06/09 17:08:56;;;;;;;;;;;;;;;7.08;100.00;99026.16;6122366;23;19917;-79
2023/06/09 17:11:21;;;;;;;;;;;;;;;7.07;100.00;99023.59;6098606;23;20305;-80
2023/06/09 17:13:46;;;;;;;;;;;;;;;7.09;100.00;99021.75;6122720;23;20269;-82
2023/06/09 17:16:11;;;;;;;;;;;;;;;7.11;100.00;99025.16;6098127;23;20202;-81
2023/06/09 17:18:37;;;;;;;;;;;;;;;7.06;100.00;99030.63;6098267;23;19924;-80
2023/06/09 17:21:02;;;;;;;;;;;;;;;7.03;100.00;99032.53;6123261;23;19917;-80
2023/06/09 17:23:27;;;;;;;;;;;;;;;7.04;100.00;99026.34;6122648;23;20304;-81
2023/06/09 17:25:52;;;;;;;;;;;;;;;7.06;100.00;99035.03;6099472;23;19995;-82
2023/06/09 17:28:18;;;;;;;;;;;;;;;7.06;100.00;99041.16;6099154;23;19940;-79
2023/06/09 17:30:43;;;;;;;;;;;;;;;7.12;100.00;99044.50;6125502;23;19924;-81
2023/06/09 17:33:08;;;;;;;;;;;;;;;7.09;100.00;99041.03;6097898;23;19912;-80
2023/06/09 17:35:34;;;;;;;;;;;;;;;7.08;100.00;99043.72;6098792;23;20336;-79
2023/06/09 17:37:59;;;;;;;;;;;;;;;7.05;100.00;99049.13;6122806;23;19913;-80
2023/06/09 17:40:27;;;;;;;;;;;;;;;7.06;100.00;99042.94;6097810;23;19916;-80
2023/06/09 17:42:52;;;;;;;;;;;;;;;7.06;100.00;99035.88;6098357;23;19928;-80
2023/06/09 17:45:17;;;;;;;;;;;;;;;7.04;100.00;99040.38;6097983;23;19917;-81
2023/06/09 17:47:43;;;;;;;;;;;;;;;7.02;100.00;99042.22;6123937;23;19952;-82
2023/06/09 17:50:08;;;;;;;;;;;;;;;7.04;100.00;99044.78;6097266;23;20381;-79
2023/06/09 17:52:34;;;;;;;;;;;;;;;7.02;100.00;99042.22;6122445;23;19926;-80
2023/06/09 17:55:01;;;;;;;;;;;;;;;7.05;100.00;99055.28;6098050;23;20286;-80
2023/06/09 17:57:27;;;;;;;;;;;;;;;6.99;100.00;99044.97;6123722;23;19924;-80
2023/06/09 17:59:52;;;;;;;;;;;;;;;7.00;100.00;99049.31;6098392;23;19909;-80
2023/06/09 18:02:17;;;;;;;;;;;;;;;7.01;100.00;99047.56;6122586;23;19924;-80
2023/06/09 18:04:43;;;;;;;;;;;;;;;7.02;100.00;99044.84;6125136;23;19916;-81
2023/06/09 18:07:10;;;;;;;;;;;;;;;7.01;100.00;99056.28;6096897;23;19913;-80
2023/06/09 18:09:35;;;;;;;;;;;;;;;7.03;100.00;99053.59;6122878;23;19968;-80
2023/06/09 18:12:00;;;;;;;;;;;;;;;7.06;100.00;99059.59;6122611;23;20008;-80
2023/06/09 18:14:25;;;;;;;;;;;;;;;7.03;100.00;99053.59;6097874;23;19920;-81
2023/06/09 18:16:51;;;;;;;;;;;;;;;7.02;100.00;99062.41;6074344;23;20068;-79
2023/06/09 18:19:17;;;;;;;;;;;;;;;7.01;100.00;99055.44;6098479;23;19919;-80
2023/06/09 18:21:43;;;;;;;;;;;;;;;7.05;100.00;99059.66;6097861;23;19996;-80
2023/06/09 18:24:08;;;;;;;;;;;;;;;7.02;100.00;99059.78;6097024;23;19948;-81
2023/06/09 18:26:33;;;;;;;;;;;;;;;7.04;100.00;99068.50;6117146;23;19914;-80
2023/06/09 18:28:58;;;;;;;;;;;;;;;7.02;100.00;99068.56;6098458;23;19917;-80
2023/06/09 18:31:24;;;;;;;;;;;;;;;7.04;100.00;99066.72;6123230;23;19913;-80
2023/06/09 18:33:51;;;;;;;;;;;;;;;7.04;100.00;99066.72;6099374;23;20330;-82
2023/06/09 18:36:16;;;;;;;;;;;;;;;7.02;100.00;99068.56;6100548;23;20274;-80
2023/06/09 18:38:42;;;;;;;;;;;;;;;7.05;100.00;99068.44;6123350;23;19940;-80
2023/06/09 18:41:07;;;;;;;;;;;;;;;7.04;100.00;99073.78;6099565;23;19992;-82
2023/06/09 18:43:33;;;;;;;;;;;;;;;7.00;100.00;99070.38;6099763;23;19941;-83
2023/06/09 18:45:58;;;;;;;;;;;;;;;7.03;100.00;99072.88;6098921;23;19920;-81
2023/06/09 18:48:23;;;;;;;;;;;;;;;7.03;100.00;99075.53;6099579;23;19913;-81
2023/06/09 18:50:48;;;;;;;;;;;;;;;7.03;100.00;99080.78;6124820;23;19924;-81
2023/06/09 18:53:14;;;;;;;;;;;;;;;7.05;100.00;99080.72;6097407;23;19947;-80
2023/06/09 18:55:39;;;;;;;;;;;;;;;7.04;100.00;99079.88;6099131;23;19972;-84
2023/06/09 18:58:05;;;;;;;;;;;;;;;7.04;100.00;99081.66;6099390;23;19913;-80
2023/06/09 19:00:30;;;;;;;;;;;;;;;7.04;100.00;99082.53;6125288;23;19917;-81
2023/06/09 19:02:55;;;;;;;;;;;;;;;7.04;100.00;99081.66;6124834;23;19913;-81
2023/06/09 19:05:20;;;;;;;;;;;;;;;7.03;100.00;99078.16;6099898;23;20325;-83
2023/06/09 19:07:46;;;;;;;;;;;;;;;7.03;100.00;99075.53;6122929;23;19913;-82
2023/06/09 19:10:11;;;;;;;;;;;;;;;7.02;100.00;99083.50;6098574;23;19921;-81